LFOH

Le Havre Octeville Airport

Le Havre/Octeville, France
TAF LFOH 151100Z 1512/1612 12010KT 4000 BR OVC002 PROB30 TEMPO 1513/1518 6000 NSW SCT008 PROB40 1522/1610 0500 FG VV///
Issued Valid From Valid To
Nov-15 @ 11:00 UTC
(2 hours ago)
Nov-15 @ 12:00 UTC
(53 minutes ago)
Nov-16 @ 12:00 UTC
(in 23 hours)
Nov-15 @ 12:00 to Nov-16 @ 12:00
TAF LFOH 151100Z 1512/1612 12010KT 4000 BR OVC002
Wind Visibility Clouds Conditions
120° at 10 knots 4,007 meters
  • Overcast at 200' AGL
  • Mist
Temporary  (Probability 30%) Nov-15 @ 13:00 to Nov-15 @ 18:00
PROB30 TEMPO 1513/1518 6000 NSW SCT008
Visibility Clouds Conditions
6,003 meters
  • Scattered at 800' AGL
Probable  (Probability 40%) Nov-15 @ 22:00 to Nov-16 @ 10:00
PROB40 1522/1610 0500 FG VV///
Visibility Conditions
499 meters
  • Fog
TAF LFOH 151100Z 1512/1612 12010KT 4000 BR OVC002 PROB30 TEMPO 1513/1518 6000 NSW SCT008 PROB40 1522/1610 0500 FG VV///
Issued Nov-15 @ 11:00 UTC
(2 hours ago)
Valid From Nov-15 @ 12:00 UTC
(53 minutes ago)
Valid To Nov-16 @ 12:00 UTC
(in 23 hours)
Nov-15 @ 12:00 - Nov-16 @ 12:00
Wind Visibility
120° at 10 knots 4,007 meters
Clouds
  • Overcast at 200' AGL
Conditions
  • Mist
Probability 30% Temporary Nov-15 @ 13:00 - Nov-15 @ 18:00
Clouds
  • Scattered at 800' AGL
Conditions
Probability 40% Probable Nov-15 @ 22:00 - Nov-16 @ 10:00
Conditions
  • Fog